Duncan, British Columbia

5:35 AM PDT on September 21, 2014 (GMT -0700)
IBRITISH48 | Change Station
CLOSE
Current Station
Personal Weather Station
Location: Salt Spring Island, BRITISH COLUMBIA
Elevation: 60 ft
Nearby Weather Stations

Elev 60 ft 48.87 °N, 123.55 °W | Updated 10 minutes ago

Clear
Clear
54.1 °F
Feels Like 54.1 °F
N
0.0
Wind Variable Wind from NW
Gusts 0.0 mph

Today
High -- | Low -- °F
--% Chance of Precip.
Yesterday
High -- | Low -- °F
Precip. -- in
7:00 AM 7:14 PM
Waning Crescent, 7% visible
Pressure 29.87 in
Visibility 30.0 miles
Clouds Clear
Dew Point 51 °F
Humidity 90%
Rainfall 0.00 in
Snow Depth Not available.
UV 0.0 out of 12
Pollen Not available.
Air Quality Not available.
Flu Activity Not available.
METAR CYYJ 211200Z 25004KT 30SM SKC 12/09 A2986 RMK SNSHN/087/ SLP113

More Conditions Fewer Conditions

Pressure 29.87 in
Visibility 30.0 miles
Clouds Clear
Dew Point 51 °F
Humidity 90%
Rainfall 0.00 in
Snow Depth Not available.
UV 0.0 out of 12
Pollen Not available.
Air Quality Not available.
Flu Activity Not available.
METAR CYYJ 211200Z 25004KT 30SM SKC 12/09 A2986 RMK SNSHN/087/ SLP113

More Conditions Fewer Conditions

10-Day Weather Forecast

Almanac

Astronomy

Sep. 21, 2014 Rise Set
Actual Time 7:00 AM PDT 7:14 PM PDT
Civil Twilight 6:28 AM PDT 7:46 PM PDT
Nautical Twilight 5:51 AM PDT 8:23 PM PDT
Astronomical Twilight 5:12 AM PDT 9:01 PM PDT
Moon 4:29 AM PDT 6:00 PM PDT
Length of Visible Light 13h 17m
Length of Day
12h 14m
Tomorrow will be 3m 33s shorter.
Waning Crescent, 7% of the Moon is Illuminated
Today
Waning Crescent
Sep 24
New
Oct 1
First Quarter
Oct 8
Full
Oct 15
Last Quarter

Yesterday's Extremes

Country Highs Country Lows

Community

WunderPhotos

Upload Photos

1,755,127 photos uploaded!

Nearby

Snow Depth

Not available.

Earthquake Activity

City Distance Mag. Time & Date
No recent earthquake activity has been reported nearby.
Minimum magnitude displayed is 2.5.

Coastal Water Temperatures

Place Temperature
No Stations Reporting

Nearby Weather Stations